Time;durP1;ratioP1;P1;durP2;ratioP2;P2;SDS_P1;SDS_P2;PMS_P1;PMS_P2;Temp;Humidity;BMP_temperature;BMP_pressure;BME280_temperature;BME280_humidity;BME280_pressure;Samples;Min_cycle;Max_cycle;Signal;HPM_P1;HPM_P2
2023/11/15 04:51:36;;;;;;;8.60;3.00;;;;;;;9.88;100.00;98230.36;101497;1294;601871;-59
2023/11/15 04:54:05;;;;;;;4.70;3.40;;;;;;;10.34;100.00;98229.13;104192;1269;60585;-59
2023/11/15 04:56:34;;;;;;;7.20;3.50;;;;;;;10.36;100.00;98228.14;104236;1266;59442;-60
2023/11/15 04:59:02;;;;;;;8.90;3.40;;;;;;;10.33;100.00;98231.80;103996;1266;72337;-58
2023/11/15 05:01:30;;;;;;;8.70;3.70;;;;;;;10.28;100.00;98236.82;104027;1263;69400;-58
2023/11/15 05:03:58;;;;;;;6.60;3.50;;;;;;;10.27;100.00;98242.19;103876;1282;72645;-58
2023/11/15 05:06:25;;;;;;;;;;;;;;;10.26;100.00;98243.81;103836;1266;209289;-61
2023/11/15 05:08:53;;;;;;;;;;;;;;;10.29;100.00;98246.23;104284;1261;59512;-60
2023/11/15 05:11:21;;;;;;;7.20;3.40;;;;;;;10.28;100.00;98247.02;104144;1261;71957;-60
2023/11/15 05:13:49;;;;;;;4.90;4.10;;;;;;;10.27;100.00;98248.10;104292;1261;69476;-61
2023/11/15 05:16:17;;;;;;;9.10;3.60;;;;;;;10.29;100.00;98252.87;103872;1266;72305;-60
2023/11/15 05:18:46;;;;;;;7.30;3.40;;;;;;;10.32;100.00;98250.08;107434;1260;60925;-60
2023/11/15 05:21:13;;;;;;;4.90;3.30;;;;;;;10.35;100.00;98250.64;105067;1258;59768;-61
2023/11/15 05:23:41;;;;;;;5.60;3.50;;;;;;;10.31;100.00;98251.90;104465;1260;72906;-61
2023/11/15 05:26:09;;;;;;;5.90;3.60;;;;;;;10.34;100.00;98256.45;104135;1265;68379;-60
2023/11/15 05:28:37;;;;;;;8.20;4.00;;;;;;;10.34;100.00;98257.49;104009;1276;72407;-59
2023/11/15 05:31:05;;;;;;;6.10;3.60;;;;;;;10.35;100.00;98259.39;104791;1266;59698;-59
2023/11/15 05:33:33;;;;;;;5.60;3.10;;;;;;;10.39;100.00;98259.83;104219;1261;60106;-59
2023/11/15 05:36:00;;;;;;;5.50;3.40;;;;;;;10.43;100.00;98259.59;104515;1264;72647;-59
2023/11/15 05:38:28;;;;;;;4.50;3.20;;;;;;;10.43;100.00;98259.56;104120;1266;69158;-59
2023/11/15 05:40:57;;;;;;;4.10;3.10;;;;;;;10.45;100.00;98257.68;103987;1282;72423;-62
2023/11/15 05:43:24;;;;;;;4.80;3.50;;;;;;;10.44;100.00;98262.10;104506;1265;59665;-62
2023/11/15 05:45:52;;;;;;;;;;;;;;;10.42;100.00;98264.70;104187;1266;60673;-60
2023/11/15 05:48:20;;;;;;;4.20;3.40;;;;;;;10.49;100.00;98264.63;104080;1269;72798;-60
2023/11/15 05:50:47;;;;;;;7.40;4.10;;;;;;;10.55;100.00;98260.58;103995;1261;70099;-58
2023/11/15 05:53:18;;;;;;;4.60;3.70;;;;;;;10.52;100.00;98262.99;104447;1263;72483;-59
2023/11/15 05:55:46;;;;;;;4.50;3.80;;;;;;;10.55;100.00;98262.49;103851;1261;59852;-58
2023/11/15 05:58:14;;;;;;;5.30;3.50;;;;;;;10.52;100.00;98266.52;104111;1261;60101;-58
2023/11/15 06:00:42;;;;;;;6.20;4.20;;;;;;;10.54;100.00;98268.10;104468;1263;73374;-60
2023/11/15 06:03:10;;;;;;;4.30;3.30;;;;;;;10.58;100.00;98271.71;104113;1260;69686;-60
2023/11/15 06:05:38;;;;;;;6.30;3.40;;;;;;;10.60;100.00;98273.39;104130;1270;72445;-59
2023/11/15 06:08:06;;;;;;;7.40;4.20;;;;;;;10.58;100.00;98267.04;104445;1261;60689;-58
2023/11/15 06:10:33;;;;;;;;;;;;;;;10.58;100.00;98267.17;104172;1263;59471;-59
2023/11/15 06:13:01;;;;;;;8.70;3.40;;;;;;;10.61;100.00;98268.95;104111;1265;73429;-58
2023/11/15 06:15:29;;;;;;;;;;;;;;;10.63;100.00;98271.05;104033;1280;70442;-58
2023/11/15 06:17:56;;;;;;;4.60;3.40;;;;;;;10.68;100.00;98266.19;104353;1261;73299;-59
2023/11/15 06:20:24;;;;;;;;;;;;;;;10.68;100.00;98264.94;104030;1263;60847;-60
2023/11/15 06:22:52;;;;;;;9.80;4.60;;;;;;;10.74;100.00;98267.00;104646;1260;60004;-59
2023/11/15 06:25:20;;;;;;;5.10;3.60;;;;;;;10.79;100.00;98268.77;105450;1265;72834;-59
2023/11/15 06:27:47;;;;;;;10.60;4.40;;;;;;;10.83;100.00;98267.27;105717;1262;69408;-59
2023/11/15 06:30:18;;;;;;;8.90;3.70;;;;;;;10.89;100.00;98265.15;104042;1260;72534;-59
2023/11/15 06:32:46;;;;;;;6.80;4.10;;;;;;;10.93;100.00;98262.98;104839;1260;61106;-59
2023/11/15 06:35:18;;;;;;;;;;;;;;;10.95;100.00;98265.86;104666;1261;59989;-59
2023/11/15 06:37:48;;;;;;;6.40;4.20;;;;;;;10.98;100.00;98267.18;104098;1263;73689;-58
2023/11/15 06:40:16;;;;;;;7.80;4.00;;;;;;;11.01;100.00;98266.80;104402;1273;68145;-60
2023/11/15 06:42:43;;;;;;;7.10;4.50;;;;;;;11.03;100.00;98269.46;103747;1282;72492;-60
2023/11/15 06:45:12;;;;;;;11.70;4.70;;;;;;;11.02;100.00;98272.52;104685;1260;60713;-59
2023/11/15 06:47:43;;;;;;;9.30;4.50;;;;;;;10.99;100.00;98273.95;104600;1262;60090;-63
2023/11/15 06:50:11;;;;;;;6.60;4.70;;;;;;;11.01;100.00;98280.52;104475;1262;72827;-60
2023/11/15 06:52:39;;;;;;;5.50;4.20;;;;;;;11.02;100.00;98280.61;104397;1260;69259;-61
2023/11/15 06:55:09;;;;;;;16.50;5.40;;;;;;;11.08;100.00;98282.46;104368;1261;73331;-61
2023/11/15 06:57:40;;;;;;;7.30;4.20;;;;;;;11.14;100.00;98282.45;104320;1264;60763;-60
2023/11/15 07:00:11;;;;;;;8.90;4.10;;;;;;;11.19;100.00;98282.09;104935;1260;60244;-61
2023/11/15 07:02:42;;;;;;;7.30;4.00;;;;;;;11.20;100.00;98279.41;104444;1257;72758;-60
2023/11/15 07:05:10;;;;;;;7.10;4.20;;;;;;;11.19;100.00;98282.44;104219;1260;69096;-60
2023/11/15 07:07:39;;;;;;;7.10;3.90;;;;;;;11.25;100.00;98276.23;104198;1265;73027;-62
2023/11/15 07:10:08;;;;;;;6.70;4.50;;;;;;;11.29;100.00;98278.80;104519;1265;61574;-60
2023/11/15 07:12:36;;;;;;;7.30;4.00;;;;;;;11.36;100.00;98279.38;104597;1257;61215;-61
2023/11/15 07:15:03;;;;;;;;;;;;;;;11.42;100.00;98280.90;104393;1263;72768;-60
2023/11/15 07:17:34;;;;;;;7.10;4.20;;;;;;;11.46;100.00;98282.75;104509;1260;69326;-60
2023/11/15 07:20:06;;;;;;;8.50;3.90;;;;;;;11.49;100.00;98278.52;104820;1257;72403;-61
2023/11/15 07:22:35;;;;;;;7.10;3.60;;;;;;;11.51;100.00;98281.52;104352;1260;60586;-60
2023/11/15 07:25:06;;;;;;;8.00;3.70;;;;;;;11.62;100.00;98278.33;104705;1260;59759;-61
2023/11/15 07:27:36;;;;;;;11.90;4.30;;;;;;;11.69;100.00;98272.23;104171;1260;73292;-61
2023/11/15 07:30:07;;;;;;;6.70;4.10;;;;;;;11.78;100.00;98274.45;104322;1260;69953;-59
2023/11/15 07:32:36;;;;;;;8.60;4.30;;;;;;;11.89;100.00;98269.61;104342;1263;72493;-61
2023/11/15 07:35:05;;;;;;;7.80;4.30;;;;;;;11.96;100.00;98264.59;104729;1257;61575;-61
2023/11/15 07:37:34;;;;;;;6.80;4.20;;;;;;;12.05;100.00;98262.54;104676;1260;60801;-60
2023/11/15 07:40:04;;;;;;;4.10;3.50;;;;;;;12.11;100.00;98261.48;104400;1264;72781;-60
2023/11/15 07:42:34;;;;;;;7.00;4.00;;;;;;;12.22;100.00;98265.58;104531;1261;69539;-62
2023/11/15 07:45:04;;;;;;;7.00;3.70;;;;;;;12.25;100.00;98271.49;104630;1258;74263;-61
2023/11/15 07:47:34;;;;;;;6.80;4.00;;;;;;;12.28;100.00;98265.13;104962;1260;60683;-61
2023/11/15 07:50:02;;;;;;;8.50;4.10;;;;;;;12.36;100.00;98265.46;104686;1258;59742;-62
2023/11/15 07:52:31;;;;;;;7.80;4.20;;;;;;;12.41;100.00;98262.63;104358;1260;72827;-62
2023/11/15 07:55:00;;;;;;;8.10;4.20;;;;;;;12.45;100.00;98260.23;104624;1261;69203;-61
2023/11/15 07:57:28;;;;;;;6.90;4.20;;;;;;;12.49;100.00;98265.60;104452;1261;72474;-62
2023/11/15 07:59:56;;;;;;;7.70;3.60;;;;;;;12.43;100.00;98261.73;104551;1258;60611;-61
2023/11/15 08:02:24;;;;;;;7.20;4.90;;;;;;;12.46;100.00;98260.35;104085;1271;59758;-60
2023/11/15 08:04:51;;;;;;;7.30;4.40;;;;;;;12.49;100.00;98258.05;104217;1276;72903;-63
2023/11/15 08:07:21;;;;;;;10.40;4.60;;;;;;;12.55;100.00;98252.84;104451;1258;68759;-61
2023/11/15 08:09:49;;;;;;;6.00;4.20;;;;;;;12.60;100.00;98247.05;104584;1265;72954;-62
2023/11/15 08:12:17;;;;;;;7.20;3.80;;;;;;;12.66;100.00;98241.10;104210;1264;61033;-61
2023/11/15 08:14:45;;;;;;;7.40;3.60;;;;;;;12.68;100.00;98240.48;104409;1260;59949;-62
2023/11/15 08:17:12;;;;;;;;;;;;;;;12.73;100.00;98237.31;104323;1269;72737;-62
2023/11/15 08:19:41;;;;;;;7.70;4.30;;;;;;;12.77;100.00;98231.88;104512;1257;70437;-62
2023/11/15 08:22:09;;;;;;;11.20;3.80;;;;;;;12.78;100.00;98234.45;104358;1273;72694;-62
2023/11/15 08:24:37;;;;;;;10.10;4.40;;;;;;;12.85;100.00;98235.16;107040;1253;61314;-62
2023/11/15 08:27:05;;;;;;;;;;;;;;;12.91;100.00;98234.89;108260;1253;59733;-62
2023/11/15 08:29:32;;;;;;;;;;;;;;;12.94;100.00;98239.77;105469;1257;75016;-62
2023/11/15 08:32:00;;;;;;;12.40;4.20;;;;;;;12.95;100.00;98240.55;106012;1255;70110;-62
2023/11/15 08:34:29;;;;;;;13.70;4.90;;;;;;;13.01;100.00;98241.55;105369;1253;72811;-62
2023/11/15 08:36:58;;;;;;;8.50;4.50;;;;;;;13.00;100.00;98239.85;106121;1257;61458;-62
2023/11/15 08:39:27;;;;;;;5.50;3.70;;;;;;;13.08;100.00;98233.64;105282;1257;60383;-61
2023/11/15 08:41:55;;;;;;;6.20;3.70;;;;;;;13.14;100.00;98231.27;105086;1254;72770;-63
2023/11/15 08:44:23;;;;;;;8.70;4.30;;;;;;;13.21;100.00;98233.33;104923;1257;70283;-60
2023/11/15 08:46:51;;;;;;;7.30;4.00;;;;;;;13.30;100.00;98233.35;104938;1257;72815;-60
2023/11/15 17:07:35;;;;;;;10.00;7.40;;;;;;;12.27;100.00;98308.39;101665;1292;601155;-65
2023/11/15 17:10:04;;;;;;;9.00;7.60;;;;;;;12.78;100.00;98306.70;104512;1266;62567;-64
2023/11/15 17:12:32;;;;;;;9.50;6.60;;;;;;;12.76;100.00;98307.41;104364;1272;60058;-65
2023/11/15 17:15:00;;;;;;;11.70;7.90;;;;;;;12.70;100.00;98308.33;104072;1269;72612;-65
2023/11/15 17:17:28;;;;;;;13.00;8.20;;;;;;;12.66;100.00;98308.82;104000;1270;70220;-63
2023/11/15 17:19:57;;;;;;;12.80;8.60;;;;;;;12.62;100.00;98315.04;103797;1267;73497;-60
2023/11/15 17:22:25;;;;;;;17.80;8.30;;;;;;;12.63;100.00;98316.39;103580;1263;1913183;-61
2023/11/15 17:24:52;;;;;;;;;;;;;;;12.60;100.00;98321.36;104335;1266;59809;-61
2023/11/15 17:27:20;;;;;;;;;;;;;;;12.60;100.00;98323.80;104692;1263;71178;-61
2023/11/15 17:29:50;;;;;;;12.60;8.50;;;;;;;12.56;100.00;98326.22;107059;1264;69848;-62
2023/11/15 17:32:18;;;;;;;12.70;8.20;;;;;;;12.49;100.00;98327.24;106449;1266;71604;-61
2023/11/15 17:34:46;;;;;;;14.20;9.20;;;;;;;12.49;100.00;98327.05;104398;1269;62398;-61
2023/11/15 17:37:13;;;;;;;15.80;9.20;;;;;;;12.43;100.00;98326.24;104283;1263;60456;-60
2023/11/15 17:39:42;;;;;;;15.90;10.60;;;;;;;12.38;100.00;98328.73;104611;1262;73715;-60
2023/11/15 17:42:10;;;;;;;14.90;9.10;;;;;;;12.32;100.00;98330.77;104081;1276;68284;-61
2023/11/15 17:44:38;;;;;;;15.20;9.90;;;;;;;12.24;100.00;98333.77;104448;1260;75969;-63
2023/11/15 17:47:06;;;;;;;16.30;8.70;;;;;;;12.21;100.00;98333.80;104795;1257;61702;-63
2023/11/15 17:49:34;;;;;;;11.80;8.20;;;;;;;12.15;100.00;98331.77;105066;1256;59475;-63
2023/11/15 17:52:09;;;;;;;13.50;9.10;;;;;;;12.12;100.00;98330.41;104160;1263;72803;-63
2023/11/15 17:54:37;;;;;;;15.20;9.70;;;;;;;12.11;100.00;98327.69;104749;1257;69742;-63
2023/11/15 17:57:05;;;;;;;11.80;8.10;;;;;;;12.09;100.00;98326.57;104365;1258;72482;-63
2023/11/15 17:59:33;;;;;;;11.30;8.90;;;;;;;12.04;100.00;98327.29;105019;1257;63600;-62
2023/11/15 18:02:01;;;;;;;;;;;;;;;12.01;100.00;98330.41;104411;1263;60677;-61
2023/11/15 18:04:31;;;;;;;12.40;8.10;;;;;;;11.96;100.00;98338.16;104360;1262;72845;-62
2023/11/15 18:06:59;;;;;;;10.20;7.50;;;;;;;11.85;100.00;98329.48;104420;1256;70712;-63
2023/11/15 18:09:28;;;;;;;9.80;8.50;;;;;;;11.92;100.00;98342.16;104580;1258;72581;-61
2023/11/15 18:11:55;;;;;;;14.20;8.20;;;;;;;11.91;100.00;98341.64;104682;1260;60707;-63
2023/11/15 18:14:25;;;;;;;14.20;7.90;;;;;;;11.84;100.00;98340.66;105373;1258;59794;-62
2023/11/15 18:16:55;;;;;;;9.90;7.70;;;;;;;11.84;100.00;98337.77;104492;1256;75388;-62
2023/11/15 18:19:23;;;;;;;15.40;7.90;;;;;;;11.86;100.00;98342.17;104602;1257;69450;-61
2023/11/15 18:21:51;;;;;;;9.40;6.80;;;;;;;11.84;100.00;98344.90;104987;1262;71368;-66
2023/11/15 18:24:19;;;;;;;10.20;7.00;;;;;;;11.82;100.00;98348.21;104936;1257;60866;-60
2023/11/15 18:26:47;;;;;;;;;;;;;;;11.80;100.00;98349.61;104888;1269;59743;-60
2023/11/15 18:29:15;;;;;;;10.50;6.60;;;;;;;11.77;100.00;98353.70;104675;1259;72178;-61
2023/11/15 18:31:43;;;;;;;8.90;6.80;;;;;;;11.75;100.00;98352.73;106380;1253;71842;-61
2023/11/15 18:34:11;;;;;;;6.70;5.60;;;;;;;11.77;100.00;98355.80;106224;1257;72187;-61
2023/11/15 18:36:39;;;;;;;10.30;5.80;;;;;;;11.75;100.00;98358.38;106441;1256;61747;-61
2023/11/15 18:39:14;;;;;;;8.00;5.90;;;;;;;11.74;100.00;98365.80;104904;1257;60911;-60
2023/11/15 18:41:43;;;;;;;5.90;5.10;;;;;;;11.73;100.00;98364.13;105341;1252;72065;-62
2023/11/15 18:44:15;;;;;;;9.60;5.90;;;;;;;11.68;100.00;98365.86;105083;1257;69561;-61
2023/11/15 18:46:51;;;;;;;7.50;5.40;;;;;;;11.67;100.00;98365.90;105021;1256;72883;-62
2023/11/15 18:49:22;;;;;;;9.50;5.40;;;;;;;11.64;100.00;98364.89;104494;1258;60693;-62
2023/11/15 18:51:53;;;;;;;7.90;4.90;;;;;;;11.64;100.00;98369.27;104462;1266;59930;-64
2023/11/15 18:54:26;;;;;;;7.60;5.20;;;;;;;11.68;100.00;98370.40;104792;1257;73259;-60
2023/11/15 18:56:55;;;;;;;6.10;4.80;;;;;;;11.73;100.00;98372.55;104613;1257;70363;-61
2023/11/15 18:59:22;;;;;;;7.40;5.00;;;;;;;11.78;100.00;98372.17;104816;1254;72848;-61
2023/11/15 19:01:50;;;;;;;9.00;4.80;;;;;;;11.80;100.00;98374.67;105032;1263;61952;-61
2023/11/15 19:04:18;;;;;;;;;;;;;;;11.79;100.00;98376.69;104718;1257;60964;-61
2023/11/15 19:06:49;;;;;;;7.70;4.50;;;;;;;11.85;100.00;98374.89;104672;1258;73037;-63
2023/11/15 19:09:21;;;;;;;6.10;4.40;;;;;;;11.85;100.00;98377.54;105095;1259;71327;-64
2023/11/15 19:11:52;;;;;;;9.40;5.80;;;;;;;11.81;100.00;98380.73;104556;1254;72544;-61
2023/11/15 19:14:24;;;;;;;6.90;5.50;;;;;;;11.82;100.00;98383.17;105222;1253;60666;-61
2023/11/15 19:16:52;;;;;;;;;;;;;;;11.81;100.00;98387.80;104692;1255;61296;-61
2023/11/15 19:19:21;;;;;;;5.50;4.90;;;;;;;11.80;100.00;98389.30;105570;1254;72946;-61
2023/11/15 19:21:49;;;;;;;6.40;5.40;;;;;;;11.75;100.00;98390.45;104534;1257;69741;-61
2023/11/15 19:24:18;;;;;;;6.30;5.20;;;;;;;11.68;100.00;98392.85;104955;1258;72641;-60
2023/11/15 19:26:46;;;;;;;7.10;5.20;;;;;;;11.63;100.00;98393.75;105102;1266;60776;-60
2023/11/15 19:29:15;;;;;;;9.40;5.40;;;;;;;11.58;100.00;98394.08;105077;1266;59836;-60
2023/11/15 19:31:44;;;;;;;7.50;4.90;;;;;;;11.62;100.00;98392.76;107264;1256;73560;-60
2023/11/15 19:34:13;;;;;;;5.40;4.60;;;;;;;11.63;100.00;98395.31;105926;1258;70353;-60
2023/11/15 19:36:41;;;;;;;6.40;4.60;;;;;;;11.61;100.00;98392.65;106084;1254;72567;-60
2023/11/15 19:39:14;;;;;;;;;;;;;;;11.62;100.00;98394.84;104973;1253;60919;-60
2023/11/15 19:41:43;;;;;;;4.60;4.20;;;;;;;11.62;100.00;98392.90;104843;1254;60142;-60
2023/11/15 19:44:12;;;;;;;5.50;4.80;;;;;;;11.58;100.00;98392.51;104380;1257;72837;-60
2023/11/15 19:46:40;;;;;;;6.30;4.50;;;;;;;11.61;100.00;98393.02;104808;1256;69470;-60
2023/11/15 19:49:09;;;;;;;5.70;4.80;;;;;;;11.61;100.00;98393.38;104814;1254;73180;-63
2023/11/15 19:51:37;;;;;;;7.80;5.70;;;;;;;11.65;100.00;98395.21;104980;1254;60884;-61
2023/11/15 19:54:06;;;;;;;;;;;;;;;11.64;100.00;98394.73;104818;1258;60057;-61
2023/11/15 19:56:35;;;;;;;5.40;4.90;;;;;;;11.63;100.00;98395.65;105126;1256;73398;-61
2023/11/15 19:59:03;;;;;;;9.60;6.20;;;;;;;11.63;100.00;98396.92;104379;1257;68411;-61
2023/11/15 20:01:31;;;;;;;7.40;5.90;;;;;;;11.65;100.00;98397.48;104402;1266;72670;-60
2023/11/15 20:04:02;;;;;;;8.30;5.40;;;;;;;11.67;100.00;98397.18;104950;1256;61240;-62
2023/11/15 20:06:31;;;;;;;7.60;5.50;;;;;;;11.61;100.00;98396.15;105012;1257;59878;-60
2023/11/15 20:08:59;;;;;;;;;;;;;;;11.59;100.00;98396.33;104619;1260;73045;-61
2023/11/15 20:11:26;;;;;;;;;;;;;;;11.58;100.00;98393.52;104797;1260;70085;-60
2023/11/15 20:13:56;;;;;;;8.00;5.00;;;;;;;11.60;100.00;98393.79;105397;1256;72537;-60
2023/11/15 20:16:25;;;;;;;7.30;4.70;;;;;;;11.55;100.00;98392.23;104438;1255;61013;-59
2023/11/15 20:18:53;;;;;;;6.80;4.90;;;;;;;11.52;100.00;98393.30;104513;1260;60017;-59
2023/11/15 20:21:23;;;;;;;7.70;5.70;;;;;;;11.44;100.00;98394.65;104468;1258;72967;-60
2023/11/15 20:23:52;;;;;;;8.00;4.90;;;;;;;11.44;100.00;98396.40;104749;1259;69803;-60
2023/11/15 20:26:20;;;;;;;8.50;5.30;;;;;;;11.46;100.00;98395.39;105521;1256;71323;-60
2023/11/15 20:28:48;;;;;;;7.60;5.60;;;;;;;11.37;100.00;98395.67;104907;1259;59796;-59
2023/11/15 20:31:16;;;;;;;6.70;5.60;;;;;;;11.36;100.00;98397.63;106543;1251;60328;-61
2023/11/15 20:33:43;;;;;;;7.00;5.30;;;;;;;11.37;100.00;98394.60;106999;1256;74063;-60
2023/11/15 20:36:12;;;;;;;;;;;;;;;11.36;100.00;98397.66;104557;1257;68451;-60
2023/11/15 20:38:41;;;;;;;5.30;4.70;;;;;;;11.37;100.00;98392.86;105038;1257;73143;-60
2023/11/15 20:41:10;;;;;;;6.90;5.10;;;;;;;11.40;100.00;98395.61;105298;1251;60718;-60
2023/11/15 20:43:38;;;;;;;5.90;4.80;;;;;;;11.40;100.00;98397.02;104984;1258;60131;-60
2023/11/15 20:46:09;;;;;;;8.50;5.40;;;;;;;11.45;100.00;98398.83;104372;1275;72814;-60
2023/11/15 20:48:46;;;;;;;6.40;5.50;;;;;;;11.49;100.00;98401.33;104903;1258;69798;-59
2023/11/15 20:51:14;;;;;;;6.40;5.80;;;;;;;11.48;100.00;98401.73;105367;1257;72402;-61
2023/11/15 20:53:44;;;;;;;9.00;5.40;;;;;;;11.48;100.00;98405.79;104759;1257;60578;-61
2023/11/15 20:56:12;;;;;;;6.70;5.50;;;;;;;11.47;100.00;98403.39;104583;1257;59871;-61
2023/11/15 20:58:40;;;;;;;8.30;6.00;;;;;;;11.41;100.00;98402.25;105413;1267;74492;-59
2023/11/15 21:01:08;;;;;;;6.00;5.00;;;;;;;11.42;100.00;98403.41;105233;1256;68403;-59
2023/11/15 21:03:37;;;;;;;5.40;4.90;;;;;;;11.43;100.00;98401.20;104792;1254;71468;-59
2023/11/15 21:06:05;;;;;;;4.90;4.50;;;;;;;11.43;100.00;98407.67;104396;1273;60943;-60
2023/11/15 21:08:34;;;;;;;5.50;4.50;;;;;;;11.42;100.00;98408.27;104425;1258;59662;-59
2023/11/15 21:11:04;;;;;;;5.10;4.50;;;;;;;11.45;100.00;98408.27;104562;1257;72864;-60
2023/11/15 21:13:32;;;;;;;6.10;4.90;;;;;;;11.43;100.00;98408.78;104633;1260;69364;-60
2023/11/15 21:16:03;;;;;;;5.10;4.40;;;;;;;11.42;100.00;98409.16;104464;1257;72764;-60
2023/11/15 21:18:30;;;;;;;5.40;4.50;;;;;;;11.41;100.00;98410.67;105290;1252;60600;-61
2023/11/15 21:20:58;;;;;;;;;;;;;;;11.39;100.00;98409.21;104835;1257;60469;-60
2023/11/15 21:23:27;;;;;;;4.80;4.20;;;;;;;11.38;100.00;98411.77;104448;1254;74077;-59
2023/11/15 21:25:55;;;;;;;7.10;4.70;;;;;;;11.41;100.00;98410.67;104667;1270;68512;-60
2023/11/15 21:28:28;;;;;;;6.50;4.70;;;;;;;11.42;100.00;98416.03;104823;1254;72633;-59
2023/11/15 21:31:04;;;;;;;6.30;5.20;;;;;;;11.46;100.00;98420.64;106769;1253;62975;-60
2023/11/15 21:33:32;;;;;;;5.30;4.80;;;;;;;11.45;100.00;98424.73;106631;1254;60547;-61
2023/11/15 21:36:02;;;;;;;;;;;;;;;11.48;100.00;98425.30;107062;1256;73602;-60
2023/11/15 21:38:30;;;;;;;5.70;5.20;;;;;;;11.48;100.00;98427.02;105934;1251;69568;-60
2023/11/15 21:40:59;;;;;;;5.30;4.50;;;;;;;11.50;100.00;98425.87;105793;1257;73340;-60
2023/11/15 21:43:27;;;;;;;6.20;5.60;;;;;;;11.50;100.00;98428.13;104830;1257;60632;-60
2023/11/15 21:45:55;;;;;;;5.70;5.10;;;;;;;11.49;100.00;98427.86;104795;1257;60565;-60
2023/11/15 21:48:23;;;;;;;6.50;5.90;;;;;;;11.52;100.00;98427.48;104396;1270;73603;-60
2023/11/15 21:50:50;;;;;;;5.80;5.30;;;;;;;11.50;100.00;98432.30;104507;1260;69542;-60
2023/11/15 21:53:18;;;;;;;5.60;5.10;;;;;;;11.51;100.00;98436.31;104337;1272;72889;-59
2023/11/15 21:55:46;;;;;;;;;;;;;;;11.49;100.00;98439.77;104788;1260;60682;-60
2023/11/15 21:58:15;;;;;;;;;;;;;;;11.53;100.00;98440.73;104764;1257;60529;-60
2023/11/15 22:00:44;;;;;;;7.50;5.70;;;;;;;11.54;100.00;98436.86;105157;1253;73721;-61
2023/11/15 22:03:13;;;;;;;7.20;5.60;;;;;;;11.51;100.00;98434.70;104844;1257;69205;-61
2023/11/15 22:05:40;;;;;;;6.00;5.40;;;;;;;11.57;100.00;98434.83;104470;1273;71575;-60
2023/11/15 22:08:08;;;;;;;6.20;5.60;;;;;;;11.58;100.00;98435.00;104494;1260;60662;-61
2023/11/15 22:10:36;;;;;;;6.80;5.40;;;;;;;11.53;100.00;98437.41;105889;1257;60965;-62
2023/11/15 22:13:03;;;;;;;6.40;5.70;;;;;;;11.49;100.00;98438.02;104545;1260;73728;-61
2023/11/15 22:15:31;;;;;;;5.90;5.20;;;;;;;11.45;100.00;98435.29;104556;1254;69586;-60
2023/11/15 22:17:59;;;;;;;7.30;5.70;;;;;;;11.48;100.00;98437.57;104422;1257;72374;-61
2023/11/15 22:20:27;;;;;;;;;;;;;;;11.47;100.00;98435.99;104895;1257;60682;-60
2023/11/15 22:22:56;;;;;;;5.60;5.10;;;;;;;11.51;100.00;98435.42;104538;1256;60565;-61
2023/11/15 22:25:24;;;;;;;7.30;5.40;;;;;;;11.55;100.00;98431.30;104802;1257;73669;-62
2023/11/15 22:27:52;;;;;;;6.90;6.00;;;;;;;11.57;100.00;98428.91;105035;1258;69708;-62
2023/11/15 22:30:20;;;;;;;7.20;5.60;;;;;;;11.56;100.00;98431.64;104901;1257;72485;-60
2023/11/15 22:32:48;;;;;;;8.70;5.70;;;;;;;11.55;100.00;98429.76;105767;1254;60666;-61
2023/11/15 22:35:16;;;;;;;5.80;5.00;;;;;;;11.58;100.00;98432.48;107304;1257;59862;-61
2023/11/15 22:37:44;;;;;;;8.00;5.70;;;;;;;11.57;100.00;98432.39;104993;1257;74545;-60
2023/11/15 22:40:12;;;;;;;6.40;5.50;;;;;;;11.64;100.00;98433.30;104780;1260;69387;-60
2023/11/15 22:42:43;;;;;;;;;;;;;;;11.66;100.00;98434.07;104643;1267;72544;-61
2023/11/15 22:45:11;;;;;;;9.10;5.90;;;;;;;11.65;100.00;98429.27;105346;1254;60802;-60
2023/11/15 22:47:38;;;;;;;5.80;5.20;;;;;;;11.66;100.00;98430.56;104584;1259;60450;-60
2023/11/15 22:50:07;;;;;;;7.20;5.50;;;;;;;11.67;100.00;98428.23;104526;1267;73684;-61
2023/11/15 22:52:34;;;;;;;6.30;5.70;;;;;;;11.71;100.00;98429.23;104438;1256;68214;-64
2023/11/15 22:55:02;;;;;;;8.30;6.10;;;;;;;11.71;100.00;98429.75;104461;1258;72885;-61
2023/11/15 22:57:30;;;;;;;6.80;6.10;;;;;;;11.73;100.00;98430.48;104745;1258;60555;-60
2023/11/15 22:59:58;;;;;;;9.80;6.60;;;;;;;11.77;100.00;98432.85;104800;1255;60555;-61
2023/11/15 23:02:26;;;;;;;6.60;6.00;;;;;;;11.80;100.00;98432.59;104579;1257;74971;-60
2023/11/15 23:04:57;;;;;;;9.10;6.20;;;;;;;11.79;100.00;98435.00;104425;1258;69175;-60
2023/11/15 23:07:25;;;;;;;7.20;6.30;;;;;;;11.77;100.00;98434.95;104681;1256;72984;-60
2023/11/15 23:09:53;;;;;;;9.00;6.50;;;;;;;11.76;100.00;98432.01;104313;1261;60585;-60
2023/11/15 23:12:22;;;;;;;6.50;5.70;;;;;;;11.79;100.00;98428.86;104909;1252;60505;-60
2023/11/15 23:14:51;;;;;;;6.40;5.80;;;;;;;11.82;100.00;98433.88;104605;1266;74467;-61
2023/11/15 23:17:21;;;;;;;6.70;5.90;;;;;;;11.82;100.00;98431.61;105107;1253;69268;-61
2023/11/15 23:19:49;;;;;;;6.90;6.00;;;;;;;11.83;100.00;98429.62;106945;1255;71388;-61
2023/11/15 23:22:16;;;;;;;;;;;;;;;11.82;100.00;98434.39;104603;1260;61728;-61
2023/11/15 23:24:44;;;;;;;5.90;5.30;;;;;;;11.83;100.00;98430.16;104763;1258;61334;-62
2023/11/15 23:27:12;;;;;;;7.40;6.30;;;;;;;11.86;100.00;98432.95;104753;1270;73951;-61
2023/11/15 23:29:41;;;;;;;;;;;;;;;11.89;100.00;98430.27;104724;1259;68158;-60
2023/11/15 23:32:09;;;;;;;6.60;5.70;;;;;;;11.92;100.00;98429.91;104945;1271;73480;-61
2023/11/15 23:34:36;;;;;;;8.00;6.00;;;;;;;11.92;100.00;98430.44;108417;1253;60699;-61
2023/11/15 23:37:04;;;;;;;6.30;5.70;;;;;;;11.92;100.00;98431.89;105288;1255;60507;-60
2023/11/15 23:39:33;;;;;;;6.40;5.80;;;;;;;11.85;100.00;98428.61;104785;1264;72640;-60
2023/11/15 23:42:01;;;;;;;6.50;5.90;;;;;;;11.83;100.00;98428.04;104639;1264;69845;-60
2023/11/15 23:44:30;;;;;;;6.90;6.20;;;;;;;11.85;100.00;98421.95;105447;1255;72543;-60
2023/11/15 23:46:58;;;;;;;7.50;6.20;;;;;;;11.88;100.00;98427.52;105026;1256;60619;-62
2023/11/15 23:49:26;;;;;;;6.00;5.50;;;;;;;11.92;100.00;98432.20;104415;1258;60452;-60
2023/11/15 23:51:54;;;;;;;7.50;6.00;;;;;;;11.92;100.00;98436.46;104713;1257;73607;-60
2023/11/15 23:54:22;;;;;;;7.50;5.80;;;;;;;11.94;100.00;98444.37;107249;1252;69185;-61
2023/11/15 23:56:49;;;;;;;6.70;5.70;;;;;;;12.00;100.00;98444.48;108321;1254;72360;-61
2023/11/15 23:59:20;;;;;;;6.20;5.40;;;;;;;11.98;100.00;98443.55;108290;1254;60018;-61
